Time;durP1;ratioP1;P1;durP2;ratioP2;P2;SDS_P1;SDS_P2;PMS_P1;PMS_P2;Temp;Humidity;BMP_temperature;BMP_pressure;BME280_temperature;BME280_humidity;BME280_pressure;Samples;Min_cycle;Max_cycle;Signal;HPM_P1;HPM_P2
2022/11/06 00:04:06;;;;;;;25.85;21.52;;;;;;;;;;10289435;28;20075;-64
2022/11/06 00:09:06;;;;;;;29.30;22.73;;;;;;;;;;10310610;28;20064;-64
2022/11/06 00:14:05;;;;;;;28.75;21.30;;;;;;;;;;10285499;28;20055;-65
2022/11/06 00:19:03;;;;;;;33.97;23.42;;;;;;;;;;10291495;28;20072;-66
2022/11/06 00:24:02;;;;;;;30.92;23.92;;;;;;;;;;10296653;28;20081;-65
2022/11/06 00:29:02;;;;;;;34.15;24.17;;;;;;;;;;10279189;28;20076;-66
2022/11/06 00:34:00;;;;;;;32.88;23.95;;;;;;;;;;10285559;28;20048;-65
2022/11/06 00:38:59;;;;;;;28.80;23.80;;;;;;;;;;10286388;28;20069;-64
2022/11/06 00:43:58;;;;;;;30.33;24.58;;;;;;;;;;10286146;28;20525;-66
2022/11/06 00:48:58;;;;;;;30.38;24.55;;;;;;;;;;10288874;28;20071;-65
2022/11/06 00:53:57;;;;;;;29.95;25.92;;;;;;;;;;10295261;28;20548;-66
2022/11/06 00:58:55;;;;;;;31.48;26.20;;;;;;;;;;10278235;28;20106;-65
2022/11/06 01:03:54;;;;;;;37.45;27.92;;;;;;;;;;10285923;28;20634;-65
2022/11/06 01:08:54;;;;;;;31.95;26.55;;;;;;;;;;10285561;28;20033;-63
2022/11/06 01:13:53;;;;;;;31.55;28.15;;;;;;;;;;10285359;28;20514;-65
2022/11/06 01:18:52;;;;;;;32.83;29.13;;;;;;;;;;10285326;28;20075;-65
2022/11/06 01:23:52;;;;;;;39.05;29.15;;;;;;;;;;10284948;28;20081;-65
2022/11/06 01:28:52;;;;;;;34.45;29.10;;;;;;;;;;10285479;28;20056;-65
2022/11/06 01:33:50;;;;;;;35.55;30.17;;;;;;;;;;10284888;28;20275;-66
2022/11/06 01:38:50;;;;;;;36.95;30.00;;;;;;;;;;10284473;28;20041;-65
2022/11/06 01:43:50;;;;;;;40.17;30.80;;;;;;;;;;10284062;28;20471;-65
2022/11/06 01:48:51;;;;;;;37.03;30.05;;;;;;;;;;10286445;28;20071;-65
2022/11/06 01:53:50;;;;;;;36.00;27.17;;;;;;;;;;10294533;28;20417;-67
2022/11/06 01:58:49;;;;;;;39.67;31.83;;;;;;;;;;10276245;28;20049;-65
2022/11/06 02:03:51;;;;;;;39.28;28.92;;;;;;;;;;10283661;28;20087;-65
2022/11/06 02:08:49;;;;;;;34.90;30.75;;;;;;;;;;10283038;28;20294;-65
2022/11/06 02:13:53;;;;;;;36.53;29.58;;;;;;;;;;10283422;28;20052;-63
2022/11/06 02:19:01;;;;;;;39.60;30.90;;;;;;;;;;10286243;28;20060;-65
2022/11/06 02:24:13;;;;;;;40.40;30.13;;;;;;;;;;10291697;28;20080;-65
2022/11/06 02:29:15;;;;;;;35.00;30.95;;;;;;;;;;10276556;28;20474;-64
2022/11/06 02:34:16;;;;;;;40.20;31.95;;;;;;;;;;10283214;28;20053;-64
2022/11/06 02:39:16;;;;;;;45.33;33.30;;;;;;;;;;10282948;28;20041;-65
2022/11/06 02:44:18;;;;;;;39.92;34.30;;;;;;;;;;10281699;28;20079;-65
2022/11/06 02:49:18;;;;;;;43.15;34.70;;;;;;;;;;10281459;28;20430;-66
2022/11/06 02:54:18;;;;;;;43.97;34.17;;;;;;;;;;10282924;28;20045;-65
2022/11/06 02:59:19;;;;;;;43.03;35.38;;;;;;;;;;10282312;28;20092;-65
2022/11/06 03:04:21;;;;;;;45.22;34.53;;;;;;;;;;10281671;28;20107;-65
2022/11/06 03:09:20;;;;;;;45.10;34.80;;;;;;;;;;10282225;28;20052;-64
2022/11/06 03:14:21;;;;;;;48.85;34.10;;;;;;;;;;10285536;28;20072;-64
2022/11/06 03:19:24;;;;;;;45.70;34.38;;;;;;;;;;10283165;28;20079;-64
2022/11/06 03:24:28;;;;;;;52.42;37.97;;;;;;;;;;10289476;28;20064;-65
2022/11/06 03:29:34;;;;;;;40.88;33.78;;;;;;;;;;10289327;28;20447;-65
2022/11/06 03:34:46;;;;;;;49.65;36.63;;;;;;;;;;10295764;28;20051;-66
2022/11/06 03:39:47;;;;;;;47.53;36.47;;;;;;;;;;10295736;28;20060;-66
2022/11/06 03:44:48;;;;;;;44.85;35.28;;;;;;;;;;10281645;28;20061;-65
2022/11/06 03:49:49;;;;;;;48.83;38.03;;;;;;;;;;10289176;28;20088;-65
2022/11/06 03:54:49;;;;;;;49.50;37.38;;;;;;;;;;10288491;28;20103;-65
2022/11/06 03:59:51;;;;;;;43.25;35.22;;;;;;;;;;10289161;28;20072;-67
2022/11/06 04:04:51;;;;;;;51.47;36.78;;;;;;;;;;10288310;28;20060;-65
2022/11/06 04:15:09;;;;;;;50.97;36.67;;;;;;;;;;10288273;28;20076;-66
2022/11/06 04:20:09;;;;;;;44.15;36.33;;;;;;;;;;10287125;28;20084;-66
2022/11/06 04:30:32;;;;;;;47.10;36.58;;;;;;;;;;10287154;28;20068;-66
2022/11/06 04:35:33;;;;;;;46.15;37.03;;;;;;;;;;10302455;28;20076;-66
2022/11/06 04:40:37;;;;;;;46.72;38.78;;;;;;;;;;10286967;28;20542;-66
2022/11/06 04:45:40;;;;;;;48.88;36.20;;;;;;;;;;10286973;28;20080;-65
2022/11/06 04:50:42;;;;;;;52.67;37.03;;;;;;;;;;10287781;28;20084;-65
2022/11/06 04:55:46;;;;;;;42.97;34.72;;;;;;;;;;10287348;28;20084;-65
2022/11/06 05:00:46;;;;;;;43.60;35.67;;;;;;;;;;10286804;28;20045;-66
2022/11/06 05:05:45;;;;;;;41.33;33.83;;;;;;;;;;10286698;28;20753;-66
2022/11/06 05:10:44;;;;;;;40.60;32.40;;;;;;;;;;10292234;28;20066;-65
2022/11/06 05:15:42;;;;;;;40.90;34.05;;;;;;;;;;10291557;28;20049;-66
2022/11/06 05:20:42;;;;;;;40.42;32.10;;;;;;;;;;10278923;28;20083;-66
2022/11/06 05:25:40;;;;;;;34.05;29.55;;;;;;;;;;10300809;28;20083;-65
2022/11/06 05:30:38;;;;;;;35.75;28.67;;;;;;;;;;10284336;28;20064;-65
2022/11/06 05:35:36;;;;;;;43.65;31.98;;;;;;;;;;10284204;28;20076;-65
2022/11/06 05:40:36;;;;;;;37.72;31.38;;;;;;;;;;10282927;28;20075;-66
2022/11/06 05:45:34;;;;;;;40.88;30.70;;;;;;;;;;10281350;28;20068;-66
2022/11/06 05:50:33;;;;;;;39.55;30.55;;;;;;;;;;10299894;28;20057;-66
2022/11/06 05:55:33;;;;;;;37.42;28.40;;;;;;;;;;10298030;28;20080;-66
2022/11/06 06:00:33;;;;;;;32.92;26.75;;;;;;;;;;10299546;28;20061;-66
2022/11/06 06:05:31;;;;;;;41.22;29.05;;;;;;;;;;10300025;28;20099;-66
2022/11/06 06:10:29;;;;;;;35.38;29.63;;;;;;;;;;10282706;28;20075;-67
2022/11/06 06:15:28;;;;;;;38.85;28.45;;;;;;;;;;10282151;28;20076;-66
2022/11/06 06:20:27;;;;;;;36.60;30.33;;;;;;;;;;10281843;28;20528;-65
2022/11/06 06:25:26;;;;;;;43.17;35.25;;;;;;;;;;10283369;28;20546;-66
2022/11/06 06:30:25;;;;;;;63.63;46.65;;;;;;;;;;10289581;28;20087;-65
2022/11/06 06:35:23;;;;;;;51.72;38.67;;;;;;;;;;10281995;28;20072;-66
2022/11/06 06:40:22;;;;;;;46.95;32.55;;;;;;;;;;10281574;28;20521;-64
2022/11/06 06:45:21;;;;;;;45.83;37.65;;;;;;;;;;10280644;28;20522;-66
2022/11/06 06:50:19;;;;;;;41.72;31.67;;;;;;;;;;10278839;28;20085;-66
2022/11/06 06:55:17;;;;;;;39.70;29.30;;;;;;;;;;10280551;28;20084;-65
2022/11/06 07:00:17;;;;;;;38.05;29.88;;;;;;;;;;10288094;28;20077;-65
2022/11/06 07:05:15;;;;;;;34.63;27.80;;;;;;;;;;10298527;28;20600;-65
2022/11/06 07:10:14;;;;;;;37.08;28.05;;;;;;;;;;10304143;28;20202;-64
2022/11/06 07:15:12;;;;;;;43.38;36.58;;;;;;;;;;10287295;28;20076;-66
2022/11/06 07:20:13;;;;;;;58.55;42.55;;;;;;;;;;10287783;28;20108;-64
2022/11/06 07:25:11;;;;;;;42.45;29.30;;;;;;;;;;10289312;28;20079;-66
2022/11/06 07:30:10;;;;;;;36.15;27.88;;;;;;;;;;10294673;28;20069;-65
2022/11/06 07:35:09;;;;;;;35.78;28.02;;;;;;;;;;10291661;28;20430;-66
2022/11/06 07:40:10;;;;;;;39.63;28.27;;;;;;;;;;10278393;28;20670;-65
2022/11/06 07:45:09;;;;;;;34.20;28.13;;;;;;;;;;10291868;28;20076;-65
2022/11/06 07:50:07;;;;;;;33.58;29.40;;;;;;;;;;10295022;28;20566;-66
2022/11/06 07:55:06;;;;;;;35.20;27.75;;;;;;;;;;10280977;28;20037;-65
2022/11/06 08:00:06;;;;;;;33.67;26.20;;;;;;;;;;10295426;28;20064;-66
2022/11/06 08:05:11;;;;;;;34.28;25.98;;;;;;;;;;10297664;28;20092;-66
2022/11/06 08:10:09;;;;;;;31.60;24.02;;;;;;;;;;10287614;28;20065;-66
2022/11/06 08:15:09;;;;;;;27.73;22.83;;;;;;;;;;10287328;28;20087;-67
2022/11/06 08:20:09;;;;;;;24.48;21.42;;;;;;;;;;10288105;28;20072;-66
2022/11/06 08:25:08;;;;;;;29.73;23.40;;;;;;;;;;10293787;28;20084;-65
2022/11/06 08:30:07;;;;;;;24.23;20.42;;;;;;;;;;10293716;28;20037;-65
2022/11/06 08:35:07;;;;;;;26.83;21.50;;;;;;;;;;10280054;28;20498;-65
2022/11/06 08:40:06;;;;;;;30.40;20.90;;;;;;;;;;10287430;28;20083;-66
2022/11/06 08:45:05;;;;;;;26.98;22.20;;;;;;;;;;10286883;28;20525;-65
2022/11/06 08:50:03;;;;;;;27.08;20.80;;;;;;;;;;10291009;28;20037;-65
2022/11/06 08:55:03;;;;;;;32.90;20.20;;;;;;;;;;10285846;28;20061;-65
2022/11/06 09:00:02;;;;;;;27.20;20.13;;;;;;;;;;10286634;28;20126;-65
2022/11/06 09:05:00;;;;;;;27.17;19.40;;;;;;;;;;10285444;28;20079;-65
2022/11/06 09:09:58;;;;;;;23.85;20.02;;;;;;;;;;10293806;28;20068;-65
2022/11/06 09:14:58;;;;;;;25.05;19.83;;;;;;;;;;10303665;28;20045;-65
2022/11/06 09:19:56;;;;;;;30.08;20.23;;;;;;;;;;10284284;28;20056;-65
2022/11/06 09:24:54;;;;;;;25.70;18.63;;;;;;;;;;10283911;28;20099;-65
2022/11/06 09:30:02;;;;;;;22.92;17.08;;;;;;;;;;10283895;28;20075;-65
2022/11/06 09:35:00;;;;;;;20.73;18.58;;;;;;;;;;10286455;28;20064;-65
2022/11/06 09:39:58;;;;;;;21.13;17.35;;;;;;;;;;10290935;28;20040;-66
2022/11/06 09:45:08;;;;;;;26.30;19.65;;;;;;;;;;10290402;28;20179;-65
2022/11/06 09:50:11;;;;;;;21.10;18.50;;;;;;;;;;10276068;28;20048;-66
2022/11/06 09:55:12;;;;;;;18.73;16.73;;;;;;;;;;10290718;28;20052;-65
2022/11/06 10:00:13;;;;;;;20.08;15.65;;;;;;;;;;10276180;28;20072;-64
2022/11/06 10:05:17;;;;;;;23.73;16.10;;;;;;;;;;10281640;28;20462;-65
2022/11/06 10:10:16;;;;;;;22.58;18.13;;;;;;;;;;10281205;28;20041;-66
2022/11/06 10:15:21;;;;;;;22.00;16.40;;;;;;;;;;10283547;28;20080;-64
2022/11/06 10:20:20;;;;;;;16.48;12.68;;;;;;;;;;10281084;28;20068;-65
2022/11/06 10:25:27;;;;;;;23.13;14.10;;;;;;;;;;10292485;28;20084;-66
2022/11/06 10:30:29;;;;;;;29.13;15.18;;;;;;;;;;10279043;28;20077;-65
2022/11/06 10:35:30;;;;;;;23.38;13.82;;;;;;;;;;10292627;28;20091;-64
2022/11/06 10:40:30;;;;;;;21.05;13.25;;;;;;;;;;10284147;28;20084;-65
2022/11/06 10:45:30;;;;;;;20.42;12.00;;;;;;;;;;10275635;28;20096;-67
2022/11/06 10:50:31;;;;;;;31.20;15.15;;;;;;;;;;10281125;28;20502;-66
2022/11/06 10:55:41;;;;;;;19.55;12.68;;;;;;;;;;10283794;28;20107;-65
2022/11/06 11:00:41;;;;;;;22.42;12.07;;;;;;;;;;10290213;28;20076;-65
2022/11/06 11:05:41;;;;;;;22.88;12.45;;;;;;;;;;10277637;28;20095;-66
2022/11/06 11:10:39;;;;;;;21.08;12.30;;;;;;;;;;10286505;28;20084;-66
2022/11/06 11:15:41;;;;;;;19.40;11.65;;;;;;;;;;10286186;28;20060;-65
2022/11/06 11:20:42;;;;;;;23.65;11.38;;;;;;;;;;10281783;28;20081;-66
2022/11/06 11:25:41;;;;;;;17.35;13.52;;;;;;;;;;10294564;28;20185;-65
2022/11/06 11:30:39;;;;;;;25.48;12.20;;;;;;;;;;10281457;28;20080;-65
2022/11/06 11:35:38;;;;;;;17.13;11.23;;;;;;;;;;10279849;28;20606;-65
2022/11/06 11:40:38;;;;;;;17.85;12.63;;;;;;;;;;10284126;28;20081;-65
2022/11/06 11:45:36;;;;;;;19.98;11.77;;;;;;;;;;10287467;28;20076;-65
2022/11/06 11:50:35;;;;;;;22.02;12.20;;;;;;;;;;10285438;28;20147;-66
2022/11/06 11:55:37;;;;;;;22.67;13.60;;;;;;;;;;10290747;28;20106;-66
2022/11/06 12:00:36;;;;;;;16.00;11.88;;;;;;;;;;10287695;28;20049;-65
2022/11/06 12:05:37;;;;;;;15.07;10.10;;;;;;;;;;10284730;28;20422;-66
2022/11/06 12:10:37;;;;;;;18.15;12.40;;;;;;;;;;10294365;28;20049;-66
2022/11/06 12:15:40;;;;;;;19.13;10.27;;;;;;;;;;10293869;28;20068;-66
2022/11/06 12:20:41;;;;;;;24.58;10.73;;;;;;;;;;10281745;28;20056;-65
2022/11/06 12:25:41;;;;;;;15.85;11.00;;;;;;;;;;10284715;28;20085;-65
2022/11/06 12:30:42;;;;;;;19.75;12.02;;;;;;;;;;10286485;28;20103;-66
2022/11/06 12:35:42;;;;;;;20.15;12.32;;;;;;;;;;10285123;28;20536;-66
2022/11/06 12:40:41;;;;;;;18.48;11.95;;;;;;;;;;10286430;28;20069;-66
2022/11/06 12:45:52;;;;;;;20.52;11.55;;;;;;;;;;10287640;28;20482;-65
2022/11/06 12:50:55;;;;;;;16.52;11.43;;;;;;;;;;10286100;28;20073;-66
2022/11/06 12:55:57;;;;;;;22.60;12.43;;;;;;;;;;10285074;28;20524;-65
2022/11/06 13:01:03;;;;;;;23.42;13.43;;;;;;;;;;10285446;28;20056;-65
2022/11/06 13:06:05;;;;;;;19.45;11.88;;;;;;;;;;10286256;28;20091;-66
2022/11/06 13:11:17;;;;;;;16.45;12.57;;;;;;;;;;10281944;28;20057;-65
2022/11/06 13:16:22;;;;;;;26.88;13.38;;;;;;;;;;10282545;28;20498;-65
2022/11/06 13:21:20;;;;;;;;;;;;;;;;;;10285230;28;20426;-65
2022/11/06 13:26:22;;;;;;;22.77;15.45;;;;;;;;;;10284467;28;19964;-65
2022/11/06 13:31:22;;;;;;;22.15;14.10;;;;;;;;;;10286163;28;20165;-65
2022/11/06 13:36:20;;;;;;;26.42;14.43;;;;;;;;;;10292425;28;20082;-64
2022/11/06 13:41:21;;;;;;;21.88;16.40;;;;;;;;;;10294284;28;20092;-65
2022/11/06 13:46:26;;;;;;;22.77;12.02;;;;;;;;;;10283207;28;20065;-65
2022/11/06 13:51:29;;;;;;;16.23;10.80;;;;;;;;;;10280869;28;20072;-65
2022/11/06 13:56:37;;;;;;;19.13;12.02;;;;;;;;;;10283458;28;20069;-66
2022/11/06 14:01:43;;;;;;;22.15;12.77;;;;;;;;;;10282462;28;20076;-65
2022/11/06 14:06:42;;;;;;;21.40;12.95;;;;;;;;;;10281129;28;20478;-65
2022/11/06 14:11:41;;;;;;;21.80;12.90;;;;;;;;;;10285274;28;20061;-65
2022/11/06 14:16:43;;;;;;;19.02;12.50;;;;;;;;;;10277830;28;20724;-65
2022/11/06 14:21:44;;;;;;;18.13;12.40;;;;;;;;;;10279226;28;20087;-64
2022/11/06 14:26:42;;;;;;;23.98;13.48;;;;;;;;;;10277923;28;20073;-64
2022/11/06 14:32:01;;;;;;;24.27;11.68;;;;;;;;;;10280562;28;20072;-65
2022/11/06 14:36:59;;;;;;;20.58;11.73;;;;;;;;;;10283215;28;20237;-63
2022/11/06 14:41:59;;;;;;;18.13;11.43;;;;;;;;;;10285435;28;20064;-65
2022/11/06 14:46:58;;;;;;;19.73;10.95;;;;;;;;;;10280525;28;20072;-64
2022/11/06 14:52:01;;;;;;;25.33;12.85;;;;;;;;;;10284913;28;20068;-65
2022/11/06 14:56:59;;;;;;;22.70;11.57;;;;;;;;;;10289119;28;20069;-65
2022/11/06 15:01:59;;;;;;;17.55;12.15;;;;;;;;;;10282094;28;20072;-66
2022/11/06 15:07:06;;;;;;;19.80;13.52;;;;;;;;;;10280698;28;20068;-65
2022/11/06 15:12:05;;;;;;;25.67;11.50;;;;;;;;;;10279389;28;20452;-65
2022/11/06 15:17:05;;;;;;;17.75;10.32;;;;;;;;;;10283902;28;20072;-65
2022/11/06 15:22:06;;;;;;;47.10;19.50;;;;;;;;;;10289512;28;20056;-64
2022/11/06 15:27:08;;;;;;;58.05;19.70;;;;;;;;;;10288390;28;20077;-63
2022/11/06 15:32:10;;;;;;;32.50;17.50;;;;;;;;;;10290623;28;20767;-64
2022/11/06 15:37:11;;;;;;;28.25;16.63;;;;;;;;;;10290036;28;20080;-62
2022/11/06 15:42:10;;;;;;;22.63;16.77;;;;;;;;;;10285350;28;20072;-63
2022/11/06 15:47:19;;;;;;;23.40;13.65;;;;;;;;;;10287446;28;20077;-64
2022/11/06 15:52:19;;;;;;;21.77;13.70;;;;;;;;;;10288256;28;20527;-65
2022/11/06 15:57:19;;;;;;;24.95;14.73;;;;;;;;;;10298367;28;20084;-65
2022/11/06 16:02:19;;;;;;;21.10;13.50;;;;;;;;;;10288171;28;20079;-65
2022/11/06 16:07:19;;;;;;;20.45;13.10;;;;;;;;;;10287494;28;20091;-65
2022/11/06 16:12:48;;;;;;;22.55;14.45;;;;;;;;;;10291781;28;20061;-65
2022/11/06 16:17:46;;;;;;;19.20;13.10;;;;;;;;;;10284023;28;20072;-64
2022/11/06 16:22:46;;;;;;;26.23;16.50;;;;;;;;;;10284348;28;20080;-64
2022/11/06 16:27:44;;;;;;;23.55;15.80;;;;;;;;;;10277822;28;20087;-62
2022/11/06 16:32:42;;;;;;;29.55;19.83;;;;;;;;;;10282884;28;20069;-64
2022/11/06 16:37:41;;;;;;;26.73;16.95;;;;;;;;;;10285413;28;20526;-63
2022/11/06 16:42:59;;;;;;;31.48;20.38;;;;;;;;;;10283090;28;20083;-63
2022/11/06 16:48:16;;;;;;;42.35;29.35;;;;;;;;;;10289464;28;20081;-62
2022/11/06 16:53:18;;;;;;;24.80;15.45;;;;;;;;;;10283318;28;20071;-62
2022/11/06 16:58:18;;;;;;;27.05;20.50;;;;;;;;;;10283593;28;20490;-65
2022/11/06 17:03:19;;;;;;;28.38;16.38;;;;;;;;;;10283107;28;20092;-63
2022/11/06 17:08:22;;;;;;;26.75;16.92;;;;;;;;;;10281284;28;20072;-64
2022/11/06 17:13:22;;;;;;;25.38;15.82;;;;;;;;;;10281275;28;20068;-64
2022/11/06 17:18:21;;;;;;;25.98;14.85;;;;;;;;;;10283577;28;20075;-64
2022/11/06 17:23:20;;;;;;;21.90;14.73;;;;;;;;;;10283713;28;20072;-64
2022/11/06 17:28:18;;;;;;;23.63;14.20;;;;;;;;;;10283643;28;20080;-64
2022/11/06 17:33:18;;;;;;;20.17;15.98;;;;;;;;;;10282524;28;20094;-65
2022/11/06 17:38:17;;;;;;;23.52;16.73;;;;;;;;;;10285263;28;20521;-64
2022/11/06 17:43:15;;;;;;;26.50;20.15;;;;;;;;;;10283312;28;20075;-65
2022/11/06 17:48:14;;;;;;;33.85;21.52;;;;;;;;;;10304156;28;20090;-64
2022/11/06 17:53:14;;;;;;;17.30;12.30;;;;;;;;;;10300956;28;20498;-63
2022/11/06 17:58:12;;;;;;;32.40;18.10;;;;;;;;;;10294328;28;20538;-64
2022/11/06 18:03:16;;;;;;;20.70;12.20;;;;;;;;;;10311920;28;20068;-63
2022/11/06 18:08:16;;;;;;;23.92;15.98;;;;;;;;;;10295954;28;20517;-65
2022/11/06 18:13:14;;;;;;;21.70;12.90;;;;;;;;;;10284771;28;20497;-65
2022/11/06 18:18:13;;;;;;;21.50;13.60;;;;;;;;;;10281496;28;20072;-65
2022/11/06 18:23:11;;;;;;;23.40;13.18;;;;;;;;;;10281559;28;20068;-65
2022/11/06 18:28:11;;;;;;;17.48;15.20;;;;;;;;;;10278793;28;20092;-64
2022/11/06 18:33:09;;;;;;;19.08;11.70;;;;;;;;;;10278913;28;20071;-64
2022/11/06 18:38:08;;;;;;;31.05;19.95;;;;;;;;;;10280406;28;20595;-64
2022/11/06 18:43:06;;;;;;;30.67;20.30;;;;;;;;;;10290302;28;20075;-64
2022/11/06 18:48:07;;;;;;;34.50;27.77;;;;;;;;;;10280813;28;20094;-64
2022/11/06 18:53:06;;;;;;;21.92;16.13;;;;;;;;;;10281705;28;20506;-64
2022/11/06 18:58:04;;;;;;;22.75;15.52;;;;;;;;;;10283220;28;20076;-63
2022/11/06 19:03:02;;;;;;;19.92;13.48;;;;;;;;;;10280878;28;20071;-65
2022/11/06 19:08:02;;;;;;;20.35;14.00;;;;;;;;;;10287354;28;20260;-65
2022/11/06 19:13:00;;;;;;;24.00;13.20;;;;;;;;;;10276077;28;20510;-66
2022/11/06 19:17:59;;;;;;;22.23;16.20;;;;;;;;;;10289573;28;20490;-63
2022/11/06 19:22:58;;;;;;;20.77;11.05;;;;;;;;;;10275966;28;20077;-65
2022/11/06 19:27:57;;;;;;;16.75;10.15;;;;;;;;;;10289880;28;20127;-64
2022/11/06 19:32:56;;;;;;;12.55;8.73;;;;;;;;;;10272226;28;20060;-65
2022/11/06 19:37:54;;;;;;;16.35;10.13;;;;;;;;;;10282561;28;20065;-63
2022/11/06 19:42:53;;;;;;;18.10;10.75;;;;;;;;;;10274560;28;20065;-64
2022/11/06 19:47:53;;;;;;;16.25;12.43;;;;;;;;;;10279112;28;20072;-64
2022/11/06 19:52:51;;;;;;;20.63;10.07;;;;;;;;;;10272389;28;20064;-65
2022/11/06 19:57:50;;;;;;;22.02;15.52;;;;;;;;;;10275652;28;20081;-63
2022/11/06 20:02:53;;;;;;;11.70;8.18;;;;;;;;;;10279703;28;20076;-63
2022/11/06 20:07:51;;;;;;;20.63;11.27;;;;;;;;;;10288729;28;20079;-64
2022/11/06 20:12:49;;;;;;;31.23;18.98;;;;;;;;;;10296874;28;20041;-64
2022/11/06 20:17:47;;;;;;;15.90;11.23;;;;;;;;;;10277849;28;20080;-64
2022/11/06 20:22:47;;;;;;;24.13;14.80;;;;;;;;;;10280275;28;20084;-65
2022/11/06 20:27:46;;;;;;;12.73;9.70;;;;;;;;;;10283768;28;20077;-63
2022/11/06 20:32:44;;;;;;;11.85;8.68;;;;;;;;;;10285244;28;20069;-65
2022/11/06 20:37:43;;;;;;;12.82;7.38;;;;;;;;;;10287464;28;20068;-65
2022/11/06 20:42:43;;;;;;;10.30;6.53;;;;;;;;;;10279890;28;20068;-64
2022/11/06 20:47:41;;;;;;;8.35;7.15;;;;;;;;;;10288919;28;20080;-64
2022/11/06 20:52:39;;;;;;;11.95;7.65;;;;;;;;;;10290314;28;20052;-65
2022/11/06 20:57:37;;;;;;;12.30;8.15;;;;;;;;;;10285785;28;20405;-63
2022/11/06 21:02:37;;;;;;;12.32;7.53;;;;;;;;;;10281647;28;20080;-65
2022/11/06 21:07:35;;;;;;;10.27;7.43;;;;;;;;;;10283444;28;20068;-65
2022/11/06 21:12:34;;;;;;;16.05;9.57;;;;;;;;;;10291890;28;20072;-64
2022/11/06 21:17:32;;;;;;;16.67;7.75;;;;;;;;;;10283045;28;20068;-64
2022/11/06 21:22:31;;;;;;;13.25;8.00;;;;;;;;;;10287398;28;20060;-65
2022/11/06 21:27:30;;;;;;;12.65;7.65;;;;;;;;;;10281748;28;20073;-64
2022/11/06 21:32:28;;;;;;;15.20;7.50;;;;;;;;;;10283984;28;20553;-65
2022/11/06 21:37:31;;;;;;;12.85;7.55;;;;;;;;;;10279096;28;20072;-65
2022/11/06 21:42:31;;;;;;;16.15;8.40;;;;;;;;;;10293249;28;20051;-64
2022/11/06 21:47:29;;;;;;;15.00;8.13;;;;;;;;;;10287375;28;20045;-63
2022/11/06 21:57:46;;;;;;;15.32;7.90;;;;;;;;;;10278542;28;20048;-65
2022/11/06 22:02:44;;;;;;;14.70;7.28;;;;;;;;;;10278805;28;20076;-64
2022/11/06 22:07:42;;;;;;;13.77;8.30;;;;;;;;;;10276419;28;20076;-64
2022/11/06 22:12:41;;;;;;;14.82;6.90;;;;;;;;;;10283057;28;20080;-64
2022/11/06 22:17:40;;;;;;;14.82;7.97;;;;;;;;;;10283969;28;20104;-64
2022/11/06 22:22:39;;;;;;;13.02;6.75;;;;;;;;;;10284527;28;20525;-64
2022/11/06 22:27:37;;;;;;;11.57;6.93;;;;;;;;;;10282446;28;20538;-64
2022/11/06 22:32:38;;;;;;;11.85;7.60;;;;;;;;;;10283376;28;20602;-65
2022/11/06 22:37:37;;;;;;;12.48;8.10;;;;;;;;;;10282504;28;20520;-64
2022/11/06 22:42:36;;;;;;;10.00;7.18;;;;;;;;;;10283875;28;20091;-64
2022/11/06 22:47:34;;;;;;;13.13;7.45;;;;;;;;;;10282362;28;20037;-64
2022/11/06 22:52:33;;;;;;;8.20;6.15;;;;;;;;;;10283426;28;20098;-64
2022/11/06 22:57:32;;;;;;;13.23;6.90;;;;;;;;;;10283035;28;20072;-64
2022/11/06 23:02:33;;;;;;;11.82;6.78;;;;;;;;;;10283010;28;20194;-64
2022/11/06 23:07:31;;;;;;;10.50;5.30;;;;;;;;;;10283397;28;20041;-64
2022/11/06 23:12:29;;;;;;;8.90;5.90;;;;;;;;;;10282798;28;20083;-63
2022/11/06 23:17:29;;;;;;;11.30;5.95;;;;;;;;;;10292137;28;20059;-65
2022/11/06 23:22:36;;;;;;;10.23;5.43;;;;;;;;;;10287599;28;20037;-65
2022/11/06 23:27:35;;;;;;;13.90;4.78;;;;;;;;;;10281497;28;20072;-63
2022/11/06 23:32:35;;;;;;;10.20;5.75;;;;;;;;;;10282598;28;20548;-64
2022/11/06 23:37:33;;;;;;;10.80;5.40;;;;;;;;;;10285800;28;20076;-65
2022/11/06 23:42:32;;;;;;;9.77;5.32;;;;;;;;;;10289794;28;20068;-64
2022/11/06 23:47:30;;;;;;;10.00;5.15;;;;;;;;;;10289170;28;20080;-63
2022/11/06 23:52:30;;;;;;;11.10;5.25;;;;;;;;;;10288848;28;20095;-64
2022/11/06 23:57:28;;;;;;;11.23;4.47;;;;;;;;;;10289477;28;20080;-65
